Pagrindinis puslapis
METAR-TAF:

METAR-TAF

Oro uostai :

Kununurra, Australija

platuma: 15-46S, ilguma: 128-42E, Aukštis: 44 m

Dabartinis oras

Ataskaita buvo paskelbta 24 minutes, ne 21:00 UTC
Vėjas 2 kt iš Šiaurės Rytų
Temperatūra 20°C
Drėgmė 64%
Slėgis 1013 hPa
Matomumas 10 km arba daugiau

METAR: YPKU 202100Z AUTO 04002KT 9999 // NCD 20/13 Q1013 RF00.0/000.0

Laikas: 05:24 (21:24 UTC)

Prognozė

Ataskaita buvo paskelbta 2 valandos ir 30 minutes, ne 18:54 UTC
Prognozė galioja nuo 20 metu 20 UTC su 21 metu 08 UTC
Vėjas 5 kt iš Šiaurės
Matomumas 10 km arba daugiau
nėra debesų žemiau 1500 m ir nėra kamuolinių lietaus debesų
Nuo 21 metu 0000 UTC
Vėjas 8 kt iš Šiaurės/Šiaurės Rytų
Matomumas 10 km arba daugiau
nėra debesų žemiau 1500 m ir nėra kamuolinių lietaus debesų

TAF: YPKU 201854Z 2020/2108 36005KT CAVOK FM210000 02008KT CAVOK

Orai ataskaitas ir orų prognozės (METAR, TAF).

turimą stotys yra geltonos ir raudonos taškus žemėlapyje.

Perkelti pele per norėdami pamatyti stoties vardą.

Tada spustelėkite, norėdami matyti oro stebėjimo ir prognozės.

Norėdami pakeisti žemėlapį: spustelėkite ant žalios mygtukų su juodo kryžiaus žemyn,; žalią mygtuką su brūkšneliu, jei norite nutolinti; arba žalių rodyklių gretimoms žemėlapius.


METAR-TAF: